Hovedside
METAR-TAF:

METAR-TAF

Lufthavner :

Rundu, Namibia

breddegrad: 17-57-20S, lengdegrad: 019-43-25E, høyde over havet: 1106 m

Gjeldene værobservasjon

Denne rapporten ble laget for 1 time og 21 minutter siden, klokken 14:00 UTC
Vind 2 kt fra Øst-nordøst
Temperatur 31°C
Luftfuktighet 11%
Trykk 1022 hPa
Sikt 10 km eller mer
ingen skyer under 1500 m og ingen bygeskyer

METAR: FYRU 181400Z 06002KT CAVOK 31/M03 Q1022

Tid: 17:21 (15:21 UTC)

Varsel

Denne rapporten ble laget for 1 time og 21 minutter siden, klokken 14:00 UTC
Varsel gyldig fra 18. klokken 15 UTC til 18. klokken 24 UTC
Vind kt fra Nord
Sikt 10 km eller mer
ingen skyer under 1500 m og ingen bygeskyer

TAF: FYRU 181400Z 1815/1824 00000KT CAVOK

Værobservasjoner og værvarsel for over 4000 flyplasser (METAR- og TAF-rapporter).

Tilgjengelige stasjoner er representert av de røde og gule prikkene på kartet.

Hold musepekeren over prikken for å se navnet på stasjonen.

Klikk så for å se værobservasjoner og -varsler.

For å forandre kartet kan du klikke på den grønne knappen med svart kryss for å zoome inn, på den grønne knappen med strek for å zoome ut, eller på de grønne pilene for å se tilstøtende kart.


METAR-TAF: